sensor_id;sensor_type;location;lat;lon;timestamp;pressure;altitude;pressure_sealevel;temperature;humidity
14204;BME280;7185;51.854;6.622;2022-08-01T00:02:24;101287.84;;;20.74;100.00
14204;BME280;7185;51.854;6.622;2022-08-01T00:04:59;101291.63;;;20.68;100.00
14204;BME280;7185;51.854;6.622;2022-08-01T00:07:32;101295.81;;;20.74;100.00
14204;BME280;7185;51.854;6.622;2022-08-01T00:10:05;101296.09;;;20.67;100.00
14204;BME280;7185;51.854;6.622;2022-08-01T00:12:40;101298.78;;;20.67;100.00
14204;BME280;7185;51.854;6.622;2022-08-01T00:15:14;101303.44;;;20.62;100.00
14204;BME280;7185;51.854;6.622;2022-08-01T00:17:46;101295.09;;;20.70;100.00
14204;BME280;7185;51.854;6.622;2022-08-01T00:20:18;101292.50;;;20.68;100.00
14204;BME280;7185;51.854;6.622;2022-08-01T00:22:50;101297.88;;;20.67;100.00
14204;BME280;7185;51.854;6.622;2022-08-01T00:25:21;101300.31;;;20.72;100.00
14204;BME280;7185;51.854;6.622;2022-08-01T00:27:58;101296.09;;;20.67;100.00
14204;BME280;7185;51.854;6.622;2022-08-01T00:30:30;101299.69;;;20.66;100.00
14204;BME280;7185;51.854;6.622;2022-08-01T00:33:02;101302.28;;;20.68;100.00
14204;BME280;7185;51.854;6.622;2022-08-01T00:35:34;101306.75;;;20.67;100.00
14204;BME280;7185;51.854;6.622;2022-08-01T00:38:05;101306.91;;;20.64;100.00
14204;BME280;7185;51.854;6.622;2022-08-01T00:40:38;101303.44;;;20.62;100.00
14204;BME280;7185;51.854;6.622;2022-08-01T00:43:11;101308.44;;;20.51;100.00
14204;BME280;7185;51.854;6.622;2022-08-01T00:45:43;101306.91;;;20.64;100.00
14204;BME280;7185;51.854;6.622;2022-08-01T00:48:15;101307.34;;;20.55;100.00
14204;BME280;7185;51.854;6.622;2022-08-01T00:50:47;101315.72;;;20.47;100.00
14204;BME280;7185;51.854;6.622;2022-08-01T00:53:22;101309.81;;;20.41;100.00
14204;BME280;7185;51.854;6.622;2022-08-01T00:55:59;101312.84;;;20.33;100.00
14204;BME280;7185;51.854;6.622;2022-08-01T00:58:34;101308.81;;;20.43;100.00
14204;BME280;7185;51.854;6.622;2022-08-01T01:01:06;101316.16;;;20.38;100.00
14204;BME280;7185;51.854;6.622;2022-08-01T01:03:38;101311.13;;;20.32;100.00
14204;BME280;7185;51.854;6.622;2022-08-01T01:06:23;101312.78;;;20.34;100.00
14204;BME280;7185;51.854;6.622;2022-08-01T01:09:05;101310.19;;;20.33;100.00
14204;BME280;7185;51.854;6.622;2022-08-01T01:11:49;101309.41;;;20.31;100.00
14204;BME280;7185;51.854;6.622;2022-08-01T01:14:33;101310.56;;;20.25;100.00
14204;BME280;7185;51.854;6.622;2022-08-01T01:17:07;101307.81;;;20.27;100.00
14204;BME280;7185;51.854;6.622;2022-08-01T01:19:51;101301.69;;;20.25;100.00
14204;BME280;7185;51.854;6.622;2022-08-01T01:22:36;101300.84;;;20.24;100.00
14204;BME280;7185;51.854;6.622;2022-08-01T01:25:29;101306.25;;;20.22;100.00
14204;BME280;7185;51.854;6.622;2022-08-01T01:28:10;101304.59;;;20.20;100.00
14204;BME280;7185;51.854;6.622;2022-08-01T01:30:50;101303.00;;;20.16;100.00
14204;BME280;7185;51.854;6.622;2022-08-01T01:33:25;101302.94;;;20.17;100.00
14204;BME280;7185;51.854;6.622;2022-08-01T01:36:02;101298.03;;;20.27;100.00
14204;BME280;7185;51.854;6.622;2022-08-01T01:38:39;101304.31;;;20.26;100.00
14204;BME280;7185;51.854;6.622;2022-08-01T01:41:15;101311.22;;;20.30;100.00
14204;BME280;7185;51.854;6.622;2022-08-01T01:43:50;101314.88;;;20.28;100.00
14204;BME280;7185;51.854;6.622;2022-08-01T01:46:26;101313.88;;;20.30;100.00
14204;BME280;7185;51.854;6.622;2022-08-01T01:49:01;101307.91;;;20.25;100.00
14204;BME280;7185;51.854;6.622;2022-08-01T01:51:35;101315.19;;;20.21;100.00
14204;BME280;7185;51.854;6.622;2022-08-01T01:54:11;101305.53;;;20.19;100.00
14204;BME280;7185;51.854;6.622;2022-08-01T01:56:44;101320.56;;;20.20;100.00
14204;BME280;7185;51.854;6.622;2022-08-01T01:59:21;101313.03;;;20.11;100.00
14204;BME280;7185;51.854;6.622;2022-08-01T02:02:01;101316.31;;;20.16;100.00
14204;BME280;7185;51.854;6.622;2022-08-01T02:04:35;101312.16;;;20.10;100.00
14204;BME280;7185;51.854;6.622;2022-08-01T02:07:10;101315.59;;;20.12;100.00
14204;BME280;7185;51.854;6.622;2022-08-01T02:09:45;101311.00;;;20.16;100.00
14204;BME280;7185;51.854;6.622;2022-08-01T02:12:18;101318.34;;;20.11;100.00
14204;BME280;7185;51.854;6.622;2022-08-01T02:14:53;101319.06;;;20.14;100.00
14204;BME280;7185;51.854;6.622;2022-08-01T02:17:26;101318.34;;;20.11;100.00
14204;BME280;7185;51.854;6.622;2022-08-01T02:20:00;101315.69;;;20.11;100.00
14204;BME280;7185;51.854;6.622;2022-08-01T02:22:34;101325.31;;;20.13;100.00
14204;BME280;7185;51.854;6.622;2022-08-01T02:25:10;101314.75;;;20.12;100.00
14204;BME280;7185;51.854;6.622;2022-08-01T02:27:47;101319.38;;;20.08;100.00
14204;BME280;7185;51.854;6.622;2022-08-01T02:30:23;101321.63;;;19.97;100.00
14204;BME280;7185;51.854;6.622;2022-08-01T02:32:59;101327.41;;;20.06;100.00
14204;BME280;7185;51.854;6.622;2022-08-01T02:35:35;101320.34;;;20.05;100.00
14204;BME280;7185;51.854;6.622;2022-08-01T02:38:10;101313.31;;;20.04;100.00
14204;BME280;7185;51.854;6.622;2022-08-01T02:40:45;101328.41;;;20.04;100.00
14204;BME280;7185;51.854;6.622;2022-08-01T02:43:19;101320.50;;;20.02;100.00
14204;BME280;7185;51.854;6.622;2022-08-01T02:45:54;101322.06;;;20.06;100.00
14204;BME280;7185;51.854;6.622;2022-08-01T02:48:30;101320.22;;;20.09;100.00
14204;BME280;7185;51.854;6.622;2022-08-01T02:51:04;101325.03;;;20.00;100.00
14204;BME280;7185;51.854;6.622;2022-08-01T02:53:39;101324.19;;;20.00;100.00
14204;BME280;7185;51.854;6.622;2022-08-01T02:56:13;101329.13;;;20.08;100.00
14204;BME280;7185;51.854;6.622;2022-08-01T02:58:45;101328.28;;;20.07;100.00
14204;BME280;7185;51.854;6.622;2022-08-01T03:01:17;101316.75;;;20.06;100.00
14204;BME280;7185;51.854;6.622;2022-08-01T03:03:51;101316.75;;;20.06;100.00
14204;BME280;7185;51.854;6.622;2022-08-01T03:06:23;101315.97;;;20.04;100.00
14204;BME280;7185;51.854;6.622;2022-08-01T03:08:56;101315.25;;;20.01;100.00
14204;BME280;7185;51.854;6.622;2022-08-01T03:11:29;101322.06;;;20.06;100.00
14204;BME280;7185;51.854;6.622;2022-08-01T03:14:05;101323.28;;;19.99;100.00
14204;BME280;7185;51.854;6.622;2022-08-01T03:16:41;101326.88;;;19.98;100.00
14204;BME280;7185;51.854;6.622;2022-08-01T03:19:15;101324.09;;;20.01;100.00
14204;BME280;7185;51.854;6.622;2022-08-01T03:21:49;101322.56;;;19.96;100.00
14204;BME280;7185;51.854;6.622;2022-08-01T03:24:23;101327.97;;;19.94;100.00
14204;BME280;7185;51.854;6.622;2022-08-01T03:26:56;101329.69;;;19.95;100.00
14204;BME280;7185;51.854;6.622;2022-08-01T03:29:29;101330.00;;;19.89;100.00
14204;BME280;7185;51.854;6.622;2022-08-01T03:32:03;101335.16;;;19.92;100.00
14204;BME280;7185;51.854;6.622;2022-08-01T03:34:37;101332.22;;;19.98;100.00
14204;BME280;7185;51.854;6.622;2022-08-01T03:37:12;101328.81;;;19.95;100.00
14204;BME280;7185;51.854;6.622;2022-08-01T03:39:47;101321.84;;;19.92;100.00
14204;BME280;7185;51.854;6.622;2022-08-01T03:42:24;101323.38;;;19.98;100.00
14204;BME280;7185;51.854;6.622;2022-08-01T03:45:01;101336.56;;;20.01;100.00
14204;BME280;7185;51.854;6.622;2022-08-01T03:47:34;101337.53;;;19.98;100.00
14204;BME280;7185;51.854;6.622;2022-08-01T03:50:08;101335.09;;;19.94;100.00
14204;BME280;7185;51.854;6.622;2022-08-01T03:52:43;101325.84;;;19.82;100.00
14204;BME280;7185;51.854;6.622;2022-08-01T03:55:16;101330.00;;;19.89;100.00
14204;BME280;7185;51.854;6.622;2022-08-01T03:57:50;101331.84;;;19.87;100.00
14204;BME280;7185;51.854;6.622;2022-08-01T04:00:22;101326.91;;;19.78;100.00
14204;BME280;7185;51.854;6.622;2022-08-01T04:02:56;101328.44;;;19.83;100.00
14204;BME280;7185;51.854;6.622;2022-08-01T04:05:29;101329.56;;;19.78;100.00
14204;BME280;7185;51.854;6.622;2022-08-01T04:08:01;101329.28;;;19.85;100.00
14204;BME280;7185;51.854;6.622;2022-08-01T04:10:33;101331.84;;;19.87;100.00
14204;BME280;7185;51.854;6.622;2022-08-01T04:13:05;101326.53;;;19.87;100.00
14204;BME280;7185;51.854;6.622;2022-08-01T04:15:36;101333.97;;;19.79;100.00
14204;BME280;7185;51.854;6.622;2022-08-01T04:18:08;101332.50;;;19.71;100.00
14204;BME280;7185;51.854;6.622;2022-08-01T04:20:41;101330.53;;;19.77;100.00
14204;BME280;7185;51.854;6.622;2022-08-01T04:23:13;101328.72;;;19.77;100.00
14204;BME280;7185;51.854;6.622;2022-08-01T04:25:48;101336.09;;;19.70;100.00
14204;BME280;7185;51.854;6.622;2022-08-01T04:28:21;101337.53;;;19.78;100.00
14204;BME280;7185;51.854;6.622;2022-08-01T04:30:55;101339.72;;;19.69;100.00
14204;BME280;7185;51.854;6.622;2022-08-01T04:33:28;101349.16;;;19.77;100.00
14204;BME280;7185;51.854;6.622;2022-08-01T04:36:03;101341.91;;;19.80;100.00
14204;BME280;7185;51.854;6.622;2022-08-01T04:38:38;101352.47;;;19.82;100.00
14204;BME280;7185;51.854;6.622;2022-08-01T04:41:12;101355.19;;;19.80;100.00
14204;BME280;7185;51.854;6.622;2022-08-01T04:43:44;101357.41;;;19.91;100.00
14204;BME280;7185;51.854;6.622;2022-08-01T04:46:17;101365.38;;;19.91;100.00
14204;BME280;7185;51.854;6.622;2022-08-01T04:48:50;101361.91;;;19.89;100.00
14204;BME280;7185;51.854;6.622;2022-08-01T04:51:23;101361.75;;;19.92;100.00
14204;BME280;7185;51.854;6.622;2022-08-01T04:53:55;101361.72;;;19.94;100.00
14204;BME280;7185;51.854;6.622;2022-08-01T04:56:27;101361.91;;;19.89;100.00
14204;BME280;7185;51.854;6.622;2022-08-01T04:58:59;101365.09;;;19.97;100.00
14204;BME280;7185;51.854;6.622;2022-08-01T05:01:50;101363.22;;;19.99;100.00
14204;BME280;7185;51.854;6.622;2022-08-01T05:04:22;101368.41;;;20.02;100.00
14204;BME280;7185;51.854;6.622;2022-08-01T05:06:55;101368.00;;;20.12;100.00
14204;BME280;7185;51.854;6.622;2022-08-01T05:09:26;101370.50;;;20.15;100.00
14204;BME280;7185;51.854;6.622;2022-08-01T05:11:58;101364.38;;;20.13;100.00
14204;BME280;7185;51.854;6.622;2022-08-01T05:14:32;101373.03;;;20.18;100.00
14204;BME280;7185;51.854;6.622;2022-08-01T05:17:05;101370.88;;;20.26;100.00
14204;BME280;7185;51.854;6.622;2022-08-01T05:19:39;101371.00;;;20.23;100.00
14204;BME280;7185;51.854;6.622;2022-08-01T05:22:12;101368.06;;;20.29;100.00
14204;BME280;7185;51.854;6.622;2022-08-01T05:24:44;101371.31;;;20.17;100.00
14204;BME280;7185;51.854;6.622;2022-08-01T05:27:17;101380.34;;;20.13;100.00
14204;BME280;7185;51.854;6.622;2022-08-01T05:29:48;101383.41;;;20.24;100.00
14204;BME280;7185;51.854;6.622;2022-08-01T05:32:20;101380.94;;;20.19;100.00
14204;BME280;7185;51.854;6.622;2022-08-01T05:34:52;101378.06;;;20.24;100.00
14204;BME280;7185;51.854;6.622;2022-08-01T05:37:25;101380.56;;;20.27;100.00
14204;BME280;7185;51.854;6.622;2022-08-01T05:39:57;101383.47;;;20.22;100.00
14204;BME280;7185;51.854;6.622;2022-08-01T05:42:28;101389.00;;;20.18;100.00
14204;BME280;7185;51.854;6.622;2022-08-01T05:45:00;101389.13;;;20.15;100.00
14204;BME280;7185;51.854;6.622;2022-08-01T05:47:31;101390.44;;;20.25;100.00
14204;BME280;7185;51.854;6.622;2022-08-01T05:50:04;101390.66;;;20.20;100.00
14204;BME280;7185;51.854;6.622;2022-08-01T05:52:37;101393.59;;;20.14;100.00
14204;BME280;7185;51.854;6.622;2022-08-01T05:55:09;101392.44;;;20.20;100.00
14204;BME280;7185;51.854;6.622;2022-08-01T05:57:40;101390.59;;;20.22;100.00
14204;BME280;7185;51.854;6.622;2022-08-01T06:00:13;101387.91;;;20.22;100.00
14204;BME280;7185;51.854;6.622;2022-08-01T06:02:45;101392.31;;;20.23;100.00
14204;BME280;7185;51.854;6.622;2022-08-01T06:05:17;101390.88;;;20.35;100.00
14204;BME280;7185;51.854;6.622;2022-08-01T06:07:50;101391.44;;;20.42;100.00
14204;BME280;7185;51.854;6.622;2022-08-01T06:10:22;101385.28;;;20.41;100.00
14204;BME280;7185;51.854;6.622;2022-08-01T06:12:53;101392.59;;;20.55;100.00
14204;BME280;7185;51.854;6.622;2022-08-01T06:15:25;101396.97;;;20.56;100.00
14204;BME280;7185;51.854;6.622;2022-08-01T06:17:57;101399.66;;;20.56;100.00
14204;BME280;7185;51.854;6.622;2022-08-01T06:20:29;101397.34;;;20.67;100.00
14204;BME280;7185;51.854;6.622;2022-08-01T06:23:02;101397.47;;;20.64;100.00
14204;BME280;7185;51.854;6.622;2022-08-01T06:25:34;101400.22;;;20.63;100.00
14204;BME280;7185;51.854;6.622;2022-08-01T06:28:05;101407.13;;;20.67;100.00
14204;BME280;7185;51.854;6.622;2022-08-01T06:30:37;101403.13;;;20.58;100.00
14204;BME280;7185;51.854;6.622;2022-08-01T06:33:09;101405.28;;;20.50;100.00
14204;BME280;7185;51.854;6.622;2022-08-01T06:35:40;101402.38;;;20.54;100.00
14204;BME280;7185;51.854;6.622;2022-08-01T06:38:13;101404.84;;;20.59;100.00
14204;BME280;7185;51.854;6.622;2022-08-01T06:40:46;101402.69;;;20.48;100.00
14204;BME280;7185;51.854;6.622;2022-08-01T06:43:17;101406.00;;;20.53;100.00
14204;BME280;7185;51.854;6.622;2022-08-01T06:45:50;101402.91;;;20.63;100.00
14204;BME280;7185;51.854;6.622;2022-08-01T06:48:21;101408.72;;;20.71;100.00
14204;BME280;7185;51.854;6.622;2022-08-01T06:50:53;101407.44;;;20.80;100.00
14204;BME280;7185;51.854;6.622;2022-08-01T06:53:40;101399.47;;;20.97;100.00
14204;BME280;7185;51.854;6.622;2022-08-01T06:56:12;101404.34;;;21.07;100.00
14204;BME280;7185;51.854;6.622;2022-08-01T06:58:43;101412.44;;;21.05;100.00
14204;BME280;7185;51.854;6.622;2022-08-01T07:01:16;101403.50;;;21.06;100.00
14204;BME280;7185;51.854;6.622;2022-08-01T07:03:48;101403.56;;;21.05;100.00
14204;BME280;7185;51.854;6.622;2022-08-01T07:06:20;101400.75;;;21.25;100.00
14204;BME280;7185;51.854;6.622;2022-08-01T07:08:53;101400.28;;;21.34;100.00
14204;BME280;7185;51.854;6.622;2022-08-01T07:11:25;101403.28;;;21.28;100.00
14204;BME280;7185;51.854;6.622;2022-08-01T07:13:56;101403.59;;;21.22;100.00
14204;BME280;7185;51.854;6.622;2022-08-01T07:16:29;101403.41;;;21.25;100.00
14204;BME280;7185;51.854;6.622;2022-08-01T07:19:01;101405.31;;;21.23;100.00
14204;BME280;7185;51.854;6.622;2022-08-01T07:21:32;101405.78;;;21.14;100.00
14204;BME280;7185;51.854;6.622;2022-08-01T07:24:07;101406.75;;;21.30;100.00
14204;BME280;7185;51.854;6.622;2022-08-01T07:26:40;101399.81;;;21.26;100.00
14204;BME280;7185;51.854;6.622;2022-08-01T07:29:14;101411.59;;;21.40;100.00
14204;BME280;7185;51.854;6.622;2022-08-01T07:31:49;101408.31;;;21.52;100.00
14204;BME280;7185;51.854;6.622;2022-08-01T07:34:21;101412.16;;;21.46;100.00
14204;BME280;7185;51.854;6.622;2022-08-01T07:36:53;101415.94;;;21.42;100.00
14204;BME280;7185;51.854;6.622;2022-08-01T07:39:26;101415.03;;;21.42;100.00
14204;BME280;7185;51.854;6.622;2022-08-01T07:41:58;101429.31;;;21.23;100.00
14204;BME280;7185;51.854;6.622;2022-08-01T07:44:29;101427.44;;;20.89;100.00
14204;BME280;7185;51.854;6.622;2022-08-01T07:47:04;101429.25;;;20.88;100.00
14204;BME280;7185;51.854;6.622;2022-08-01T07:49:36;101443.72;;;21.01;100.00
14204;BME280;7185;51.854;6.622;2022-08-01T07:52:07;101443.13;;;20.95;100.00
14204;BME280;7185;51.854;6.622;2022-08-01T07:54:40;101439.00;;;21.07;100.00
14204;BME280;7185;51.854;6.622;2022-08-01T07:57:12;101444.44;;;21.05;100.00
14204;BME280;7185;51.854;6.622;2022-08-01T07:59:47;101451.81;;;21.17;100.00
14204;BME280;7185;51.854;6.622;2022-08-01T08:02:19;101451.19;;;21.12;100.00
14204;BME280;7185;51.854;6.622;2022-08-01T08:04:50;101454.88;;;21.27;100.00
14204;BME280;7185;51.854;6.622;2022-08-01T08:07:22;101454.25;;;21.40;100.00
14204;BME280;7185;51.854;6.622;2022-08-01T08:09:55;101453.22;;;21.61;100.00
14204;BME280;7185;51.854;6.622;2022-08-01T08:12:27;101456.75;;;21.79;100.00
14204;BME280;7185;51.854;6.622;2022-08-01T08:14:59;101460.34;;;21.78;100.00
14204;BME280;7185;51.854;6.622;2022-08-01T08:17:31;101466.84;;;21.90;100.00
14204;BME280;7185;51.854;6.622;2022-08-01T08:20:08;101472.28;;;21.89;100.00
14204;BME280;7185;51.854;6.622;2022-08-01T08:22:40;101474.72;;;21.93;100.00
14204;BME280;7185;51.854;6.622;2022-08-01T08:25:13;101476.91;;;21.85;100.00
14204;BME280;7185;51.854;6.622;2022-08-01T08:27:53;101487.59;;;21.85;100.00
14204;BME280;7185;51.854;6.622;2022-08-01T08:30:25;101482.03;;;21.90;100.00
14204;BME280;7185;51.854;6.622;2022-08-01T08:32:56;101486.94;;;21.97;100.00
14204;BME280;7185;51.854;6.622;2022-08-01T08:35:31;101483.53;;;21.95;100.00
14204;BME280;7185;51.854;6.622;2022-08-01T08:38:03;101485.78;;;22.03;100.00
14204;BME280;7185;51.854;6.622;2022-08-01T08:40:39;101484.59;;;22.09;100.00
14204;BME280;7185;51.854;6.622;2022-08-01T08:43:11;101487.41;;;22.23;100.00
14204;BME280;7185;51.854;6.622;2022-08-01T08:45:43;101485.78;;;22.37;100.00
14204;BME280;7185;51.854;6.622;2022-08-01T08:48:16;101495.06;;;22.47;100.00
14204;BME280;7185;51.854;6.622;2022-08-01T08:50:49;101501.66;;;22.73;100.00
14204;BME280;7185;51.854;6.622;2022-08-01T08:53:22;101504.59;;;23.01;100.00
14204;BME280;7185;51.854;6.622;2022-08-01T08:55:59;101505.09;;;22.91;100.00
14204;BME280;7185;51.854;6.622;2022-08-01T08:58:33;101508.38;;;22.97;100.00
14204;BME280;7185;51.854;6.622;2022-08-01T09:01:10;101496.28;;;23.05;100.00
14204;BME280;7185;51.854;6.622;2022-08-01T09:03:44;101499.66;;;22.93;100.00
14204;BME280;7185;51.854;6.622;2022-08-01T09:06:19;101500.53;;;23.26;100.00
14204;BME280;7185;51.854;6.622;2022-08-01T09:08:54;101500.03;;;23.65;100.00
14204;BME280;7185;51.854;6.622;2022-08-01T09:11:27;101497.34;;;23.96;100.00
14204;BME280;7185;51.854;6.622;2022-08-01T09:14:07;101502.06;;;23.76;100.00
14204;BME280;7185;51.854;6.622;2022-08-01T09:16:42;101498.31;;;23.95;100.00
14204;BME280;7185;51.854;6.622;2022-08-01T09:19:16;101490.28;;;23.95;100.00
14204;BME280;7185;51.854;6.622;2022-08-01T09:21:56;101493.84;;;23.79;100.00
14204;BME280;7185;51.854;6.622;2022-08-01T09:24:30;101498.13;;;23.98;100.00
14204;BME280;7185;51.854;6.622;2022-08-01T09:27:15;101496.03;;;24.03;100.00
14204;BME280;7185;51.854;6.622;2022-08-01T09:29:50;101502.56;;;24.28;100.00
14204;BME280;7185;51.854;6.622;2022-08-01T09:32:22;101501.41;;;24.46;100.00
14204;BME280;7185;51.854;6.622;2022-08-01T09:34:54;101506.19;;;24.56;100.00
14204;BME280;7185;51.854;6.622;2022-08-01T09:37:29;101512.69;;;24.37;100.00
14204;BME280;7185;51.854;6.622;2022-08-01T09:40:01;101516.81;;;24.43;100.00
14204;BME280;7185;51.854;6.622;2022-08-01T09:42:35;101523.88;;;24.00;100.00
14204;BME280;7185;51.854;6.622;2022-08-01T09:45:07;101520.72;;;23.78;100.00
14204;BME280;7185;51.854;6.622;2022-08-01T09:47:39;101531.69;;;23.43;100.00
14204;BME280;7185;51.854;6.622;2022-08-01T09:50:11;101534.97;;;23.32;100.00
14204;BME280;7185;51.854;6.622;2022-08-01T09:52:53;101537.06;;;23.27;100.00
14204;BME280;7185;51.854;6.622;2022-08-01T09:55:26;101537.31;;;23.22;100.00
14204;BME280;7185;51.854;6.622;2022-08-01T09:58:00;101543.59;;;23.05;100.00
14204;BME280;7185;51.854;6.622;2022-08-01T10:00:38;101537.53;;;23.01;100.00
14204;BME280;7185;51.854;6.622;2022-08-01T10:03:19;101545.66;;;23.00;100.00
14204;BME280;7185;51.854;6.622;2022-08-01T10:05:52;101534.97;;;23.00;100.00
14204;BME280;7185;51.854;6.622;2022-08-01T10:08:25;101535.81;;;23.16;100.00
14204;BME280;7185;51.854;6.622;2022-08-01T10:11:09;101542.56;;;23.23;100.00
14204;BME280;7185;51.854;6.622;2022-08-01T10:13:50;101546.94;;;23.57;100.00
14204;BME280;7185;51.854;6.622;2022-08-01T10:16:23;101539.91;;;23.70;100.00
14204;BME280;7185;51.854;6.622;2022-08-01T10:18:56;101545.34;;;23.68;100.00
14204;BME280;7185;51.854;6.622;2022-08-01T10:21:32;101543.00;;;23.94;100.00
14204;BME280;7185;51.854;6.622;2022-08-01T10:24:05;101541.19;;;24.09;100.00
14204;BME280;7185;51.854;6.622;2022-08-01T10:26:47;101543.28;;;24.04;100.00
14204;BME280;7185;51.854;6.622;2022-08-01T10:29:22;101542.03;;;23.79;100.00
14204;BME280;7185;51.854;6.622;2022-08-01T10:31:58;101542.38;;;24.19;100.00
14204;BME280;7185;51.854;6.622;2022-08-01T10:34:29;101544.28;;;24.17;100.00
14204;BME280;7185;51.854;6.622;2022-08-01T10:37:01;101545.25;;;24.31;100.00
14204;BME280;7185;51.854;6.622;2022-08-01T10:39:35;101548.50;;;24.36;100.00
14204;BME280;7185;51.854;6.622;2022-08-01T10:42:09;101542.84;;;24.55;100.00
14204;BME280;7185;51.854;6.622;2022-08-01T10:44:43;101550.81;;;24.28;100.00
14204;BME280;7185;51.854;6.622;2022-08-01T10:47:18;101548.88;;;24.30;100.00
14204;BME280;7185;51.854;6.622;2022-08-01T10:49:56;101551.38;;;24.33;100.00
14204;BME280;7185;51.854;6.622;2022-08-01T10:52:30;101554.34;;;24.43;100.00
14204;BME280;7185;51.854;6.622;2022-08-01T10:55:03;101547.38;;;24.55;100.00
14204;BME280;7185;51.854;6.622;2022-08-01T10:57:43;101547.94;;;24.45;100.00
14204;BME280;7185;51.854;6.622;2022-08-01T11:00:27;101544.09;;;24.49;100.00
14204;BME280;7185;51.854;6.622;2022-08-01T11:03:06;101546.69;;;24.65;100.00
14204;BME280;7185;51.854;6.622;2022-08-01T11:05:45;101543.00;;;24.68;100.00
14204;BME280;7185;51.854;6.622;2022-08-01T11:08:23;101546.06;;;24.76;100.00
14204;BME280;7185;51.854;6.622;2022-08-01T11:11:00;101540.16;;;24.98;100.00
14204;BME280;7185;51.854;6.622;2022-08-01T11:14:00;101544.38;;;25.30;100.00
14204;BME280;7185;51.854;6.622;2022-08-01T11:16:35;101544.09;;;25.35;100.00
14204;BME280;7185;51.854;6.622;2022-08-01T11:19:07;101545.97;;;25.47;100.00
14204;BME280;7185;51.854;6.622;2022-08-01T11:21:59;101538.88;;;25.46;100.00
14204;BME280;7185;51.854;6.622;2022-08-01T11:24:56;101541.50;;;25.48;100.00
14204;BME280;7185;51.854;6.622;2022-08-01T11:27:30;101540.84;;;25.57;100.00
14204;BME280;7185;51.854;6.622;2022-08-01T11:30:21;101542.16;;;25.64;100.00
14204;BME280;7185;51.854;6.622;2022-08-01T11:32:57;101538.94;;;25.59;100.00
14204;BME280;7185;51.854;6.622;2022-08-01T11:35:29;101539.41;;;25.38;100.00
14204;BME280;7185;51.854;6.622;2022-08-01T11:38:24;101544.06;;;25.07;100.00
14204;BME280;7185;51.854;6.622;2022-08-01T11:41:09;101546.97;;;24.90;100.00
14204;BME280;7185;51.854;6.622;2022-08-01T11:43:55;101545.63;;;24.54;100.00
14204;BME280;7185;51.854;6.622;2022-08-01T11:46:52;101548.69;;;24.33;100.00
14204;BME280;7185;51.854;6.622;2022-08-01T11:49:42;101547.94;;;24.45;100.00
14204;BME280;7185;51.854;6.622;2022-08-01T11:52:17;101546.97;;;24.32;100.00
14204;BME280;7185;51.854;6.622;2022-08-01T11:54:54;101547.53;;;24.23;100.00
14204;BME280;7185;51.854;6.622;2022-08-01T11:57:27;101553.44;;;23.99;100.00
14204;BME280;7185;51.854;6.622;2022-08-01T12:00:04;101554.19;;;24.01;100.00
14204;BME280;7185;51.854;6.622;2022-08-01T12:02:41;101557.63;;;24.03;100.00
14204;BME280;7185;51.854;6.622;2022-08-01T12:05:15;101561.84;;;23.93;100.00
14204;BME280;7185;51.854;6.622;2022-08-01T12:07:52;101556.47;;;24.07;100.00
14204;BME280;7185;51.854;6.622;2022-08-01T12:10:27;101552.19;;;24.19;100.00
14204;BME280;7185;51.854;6.622;2022-08-01T12:13:04;101560.75;;;24.40;100.00
14204;BME280;7185;51.854;6.622;2022-08-01T12:15:39;101581.41;;;24.24;100.00
14204;BME280;7185;51.854;6.622;2022-08-01T12:18:11;101567.63;;;24.30;100.00
14204;BME280;7185;51.854;6.622;2022-08-01T12:20:46;101562.53;;;24.25;100.00
14204;BME280;7185;51.854;6.622;2022-08-01T12:23:17;101558.66;;;24.45;100.00
14204;BME280;7185;51.854;6.622;2022-08-01T12:25:51;101562.00;;;24.34;100.00
14204;BME280;7185;51.854;6.622;2022-08-01T12:28:23;101560.97;;;24.66;100.00
14204;BME280;7185;51.854;6.622;2022-08-01T12:30:55;101562.88;;;24.78;100.00
14204;BME280;7185;51.854;6.622;2022-08-01T12:33:26;101565.00;;;24.88;100.00
14204;BME280;7185;51.854;6.622;2022-08-01T12:36:00;101569.78;;;24.97;100.00
14204;BME280;7185;51.854;6.622;2022-08-01T12:38:33;101562.41;;;24.86;100.00
14204;BME280;7185;51.854;6.622;2022-08-01T12:41:10;101564.19;;;25.00;100.00
14204;BME280;7185;51.854;6.622;2022-08-01T12:43:42;101559.97;;;25.10;100.00
14204;BME280;7185;51.854;6.622;2022-08-01T12:46:13;101561.66;;;25.40;100.00
14204;BME280;7185;51.854;6.622;2022-08-01T12:48:47;101561.97;;;25.49;100.00
14204;BME280;7185;51.854;6.622;2022-08-01T12:51:20;101561.38;;;25.58;100.00
14204;BME280;7185;51.854;6.622;2022-08-01T12:53:53;101558.75;;;25.84;100.00
14204;BME280;7185;51.854;6.622;2022-08-01T12:56:32;101561.28;;;26.00;100.00
14204;BME280;7185;51.854;6.622;2022-08-01T12:59:19;101553.94;;;26.02;100.00
14204;BME280;7185;51.854;6.622;2022-08-01T13:01:51;101555.84;;;26.40;100.00
14204;BME280;7185;51.854;6.622;2022-08-01T13:04:28;101548.25;;;26.97;100.00
14204;BME280;7185;51.854;6.622;2022-08-01T13:10:26;101558.09;;;27.71;100.00
14204;BME280;7185;51.854;6.622;2022-08-01T13:13:06;101545.91;;;27.54;64.54
14204;BME280;7185;51.854;6.622;2022-08-01T13:16:05;101547.59;;;27.30;64.72
14204;BME280;7185;51.854;6.622;2022-08-01T13:18:39;101551.34;;;27.28;64.69
14204;BME280;7185;51.854;6.622;2022-08-01T13:21:16;101550.38;;;27.04;63.00
14204;BME280;7185;51.854;6.622;2022-08-01T13:24:03;101536.94;;;27.29;63.12
14204;BME280;7185;51.854;6.622;2022-08-01T13:26:47;101537.47;;;27.58;63.25
14204;BME280;7185;51.854;6.622;2022-08-01T13:29:20;101535.63;;;27.59;60.81
14204;BME280;7185;51.854;6.622;2022-08-01T13:31:54;101536.06;;;27.77;61.18
14204;BME280;7185;51.854;6.622;2022-08-01T13:34:35;101533.91;;;27.93;60.80